Time;durP1;ratioP1;P1;durP2;ratioP2;P2;SDS_P1;SDS_P2;PMS_P1;PMS_P2;Temp;Humidity;BMP_temperature;BMP_pressure;BME280_temperature;BME280_humidity;BME280_pressure;Samples;Min_cycle;Max_cycle;Signal;HPM_P1;HPM_P2
2023/01/07 07:00:27;;;;;;;;;7.33;5.33;;;;;-147.14;100.00;58812.66;6171709;22;46627;-59
2023/01/07 07:02:52;;;;;;;;;6.00;4.00;;;;;-147.14;100.00;58812.66;6246815;22;45324;-60
2023/01/07 07:05:18;;;;;;;;;5.67;4.67;;;;;-147.14;100.00;58812.66;6246510;22;62308;-59
2023/01/07 07:07:43;;;;;;;;;4.00;4.00;;;;;-147.14;100.00;58812.66;6247891;22;45352;-59
2023/01/07 07:10:08;;;;;;;;;9.33;6.00;;;;;-147.14;100.00;58812.66;6247135;22;45571;-59
2023/01/07 07:12:35;;;;;;;;;6.00;5.00;;;;;-147.14;100.00;58812.66;6246883;22;45914;-58
2023/01/07 07:15:00;;;;;;;;;5.00;5.00;;;;;-147.14;100.00;58812.66;6246782;22;45524;-59
2023/01/07 07:17:25;;;;;;;;;4.00;3.33;;;;;-147.14;100.00;58812.66;6246949;22;59467;-58
2023/01/07 07:19:51;;;;;;;;;2.00;1.00;;;;;-147.14;100.00;58812.66;6220409;22;45671;-59
2023/01/07 07:22:16;;;;;;;;;4.67;4.00;;;;;-147.14;100.00;58812.66;6220411;22;45310;-59
2023/01/07 07:24:42;;;;;;;;;3.67;2.67;;;;;-147.14;100.00;58812.66;6247818;22;45126;-59
2023/01/07 07:27:07;;;;;;;;;4.67;4.00;;;;;-147.14;100.00;58812.66;6218621;22;57755;-59
2023/01/07 07:29:32;;;;;;;;;3.00;3.00;;;;;-147.14;100.00;58812.66;6247696;22;45273;-59
2023/01/07 07:31:58;;;;;;;;;5.33;3.67;;;;;-147.14;100.00;58812.66;6245891;22;64871;-59
2023/01/07 07:34:23;;;;;;;;;3.00;3.00;;;;;-147.14;100.00;58812.66;6247439;22;45238;-59
2023/01/07 07:36:49;;;;;;;;;6.67;5.33;;;;;-147.14;100.00;58812.66;6246739;22;45172;-59
2023/01/07 07:39:14;;;;;;;;;3.00;3.00;;;;;-147.14;100.00;58812.66;6247146;22;45522;-58
2023/01/07 07:41:39;;;;;;;;;5.00;4.00;;;;;-147.14;100.00;58812.66;6247310;22;45958;-59
2023/01/07 07:44:05;;;;;;;;;5.00;3.33;;;;;-147.14;100.00;58812.66;6246176;22;64976;-59
2023/01/07 07:46:30;;;;;;;;;3.00;3.00;;;;;-147.14;100.00;58812.66;6246473;22;59050;-59
2023/01/07 07:48:56;;;;;;;;;5.33;4.00;;;;;-147.14;100.00;58812.66;6244927;22;45214;-59
2023/01/07 07:51:21;;;;;;;;;4.67;3.00;;;;;-147.14;100.00;58812.66;6245000;22;46103;-59
2023/01/07 07:53:47;;;;;;;;;3.33;3.33;;;;;-147.14;100.00;58812.66;6219819;22;45730;-59
2023/01/07 07:56:12;;;;;;;;;8.00;6.67;;;;;-147.14;100.00;58812.66;6246799;22;45236;-59
2023/01/07 07:58:37;;;;;;;;;4.33;4.33;;;;;-147.14;100.00;58812.66;6219514;22;61039;-59
2023/01/07 08:01:03;;;;;;;;;4.00;4.00;;;;;-147.14;100.00;58812.66;6245794;22;52544;-59
2023/01/07 08:03:28;;;;;;;;;4.00;4.00;;;;;-147.14;100.00;58812.66;6246219;22;45288;-59
2023/01/07 08:05:54;;;;;;;;;6.00;6.00;;;;;-147.14;100.00;58812.66;6245706;22;59162;-59
2023/01/07 08:08:19;;;;;;;;;4.33;4.00;;;;;-147.14;100.00;58812.66;6219542;22;58680;-59
2023/01/07 08:10:44;;;;;;;;;6.00;4.00;;;;;-147.14;100.00;58812.66;6246584;22;49037;-59
2023/01/07 08:13:10;;;;;;;;;6.00;5.00;;;;;-147.14;100.00;58812.66;6218299;22;63498;-59
2023/01/07 08:15:36;;;;;;;;;5.00;3.00;;;;;-147.14;100.00;58812.66;6246430;22;57548;-59
2023/01/07 08:18:04;;;;;;;;;4.00;4.00;;;;;-147.14;100.00;58812.66;6246953;22;45241;-59
2023/01/07 08:20:30;;;;;;;;;8.33;5.00;;;;;-147.14;100.00;58812.66;6246049;22;45174;-60
2023/01/07 08:22:59;;;;;;;;;5.67;4.00;;;;;-147.14;100.00;58812.66;6246327;22;45328;-59
2023/01/07 08:25:25;;;;;;;;;7.67;3.00;;;;;-147.14;100.00;58812.66;6247025;22;45233;-60
2023/01/07 08:27:51;;;;;;;;;6.00;5.00;;;;;-147.14;100.00;58812.66;6245540;22;45233;-60
2023/01/07 08:30:17;;;;;;;;;5.00;5.00;;;;;-147.14;100.00;58812.66;6219498;22;46127;-60
2023/01/07 08:32:42;;;;;;;;;5.00;5.00;;;;;-147.14;100.00;58812.66;6194278;22;45324;-65
2023/01/07 08:35:08;;;;;;;;;2.00;1.33;;;;;-147.14;100.00;58812.66;6246532;22;45602;-64
2023/01/07 08:37:33;;;;;;;;;5.67;3.33;;;;;-147.14;100.00;58812.66;6246305;22;45157;-63
2023/01/07 08:39:59;;;;;;;;;5.00;3.67;;;;;-147.14;100.00;58812.66;6245620;22;64441;-64
2023/01/07 08:42:24;;;;;;;;;5.00;4.00;;;;;-147.14;100.00;58812.66;6246029;22;45647;-64
2023/01/07 08:44:49;;;;;;;;;5.00;3.00;;;;;-147.14;100.00;58812.66;6246905;22;54425;-63
2023/01/07 08:47:15;;;;;;;;;5.00;4.33;;;;;-147.14;100.00;58812.66;6246454;22;45788;-63
2023/01/07 08:49:40;;;;;;;;;8.00;4.00;;;;;-147.14;100.00;58812.66;6246094;22;46142;-63
2023/01/07 08:52:05;;;;;;;;;5.33;4.00;;;;;-147.14;100.00;58812.66;6246160;22;45229;-64
2023/01/07 08:54:31;;;;;;;;;5.00;5.00;;;;;-147.14;100.00;58812.66;6246893;22;50258;-63
2023/01/07 08:56:56;;;;;;;;;4.33;4.33;;;;;-147.14;100.00;58812.66;6245574;22;60745;-63
2023/01/07 08:59:22;;;;;;;;;6.33;4.00;;;;;-147.14;100.00;58812.66;6246860;22;48594;-63
2023/01/07 09:01:47;;;;;;;;;4.00;4.00;;;;;-147.14;100.00;58812.66;6245990;22;45292;-63
2023/01/07 09:04:12;;;;;;;;;6.00;5.00;;;;;-147.14;100.00;58812.66;6245787;22;55828;-64
2023/01/07 09:06:37;;;;;;;;;5.00;4.00;;;;;-147.14;100.00;58812.66;6245872;22;56054;-64
2023/01/07 09:09:03;;;;;;;;;3.00;3.00;;;;;-147.14;100.00;58812.66;6246169;22;45316;-64
2023/01/07 09:11:29;;;;;;;;;6.67;4.00;;;;;-147.14;100.00;58812.66;6246797;22;45450;-63
2023/01/07 09:13:54;;;;;;;;;3.00;3.00;;;;;-147.14;100.00;58812.66;6245503;22;58810;-64
2023/01/07 09:16:19;;;;;;;;;6.00;5.00;;;;;-147.14;100.00;58812.66;6246033;22;59315;-63
2023/01/07 09:18:45;;;;;;;;;3.67;3.67;;;;;-147.14;100.00;58812.66;6245774;22;65938;-63
2023/01/07 09:21:10;;;;;;;;;7.00;5.00;;;;;-147.14;100.00;58812.66;6245871;22;45243;-65
2023/01/07 09:23:35;;;;;;;;;5.00;4.33;;;;;-147.14;100.00;58812.66;6245652;22;58379;-63
2023/01/07 09:26:01;;;;;;;;;5.67;5.33;;;;;-147.14;100.00;58812.66;6246257;22;45213;-62
2023/01/07 09:28:26;;;;;;;;;4.33;4.33;;;;;-147.14;100.00;58812.66;6246677;22;45857;-61
2023/01/07 09:30:52;;;;;;;;;1.00;1.00;;;;;-147.14;100.00;58812.66;6245428;22;65375;-61
2023/01/07 09:33:17;;;;;;;;;7.67;6.00;;;;;-147.14;100.00;58812.66;6247153;22;45226;-62
2023/01/07 09:35:43;;;;;;;;;2.00;2.00;;;;;-147.14;100.00;58812.66;6244566;22;45535;-61
2023/01/07 09:38:08;;;;;;;;;5.33;5.00;;;;;-147.14;100.00;58812.66;6246023;22;53207;-62
2023/01/07 09:40:38;;;;;;;;;6.00;6.00;;;;;-147.14;100.00;58812.66;6245775;22;64649;-61
2023/01/07 09:43:08;;;;;;;;;4.33;4.33;;;;;-147.14;100.00;58812.66;6245988;22;45312;-61
2023/01/07 09:45:38;;;;;;;;;7.00;5.00;;;;;-147.14;100.00;58812.66;6246996;22;45203;-61
2023/01/07 09:48:26;;;;;;;;;5.67;5.67;;;;;-147.14;100.00;58812.66;6245602;22;46182;-61
2023/01/07 09:50:56;;;;;;;;;7.00;5.67;;;;;-147.14;100.00;58812.66;6218824;22;45368;-61
2023/01/07 09:53:25;;;;;;;;;7.67;4.33;;;;;-147.14;100.00;58812.66;6218887;22;45334;-61
2023/01/07 09:55:52;;;;;;;;;6.67;6.67;;;;;-147.14;100.00;58812.66;6218976;22;45427;-61
2023/01/07 09:58:19;;;;;;;;;7.00;7.00;;;;;-147.14;100.00;58812.66;6219349;22;46489;-60
2023/01/07 10:01:06;;;;;;;;;5.00;5.00;;;;;-147.14;100.00;58812.66;6245751;22;45153;-61
2023/01/07 10:03:47;;;;;;;;;6.33;5.00;;;;;-147.14;100.00;58812.66;6218559;22;45300;-61
2023/01/07 10:06:33;;;;;;;;;5.33;5.00;;;;;-147.14;100.00;58812.66;6245743;22;45456;-60
2023/01/07 10:09:08;;;;;;;;;5.00;5.00;;;;;-147.14;100.00;58812.66;6245525;22;45218;-61
2023/01/07 10:11:42;;;;;;;;;5.00;5.00;;;;;-147.14;100.00;58812.66;6245886;22;45249;-61
2023/01/07 10:14:30;;;;;;;;;4.67;4.67;;;;;-147.14;100.00;58812.66;6245529;22;45215;-62
2023/01/07 10:17:36;;;;;;;;;4.33;4.33;;;;;-147.14;100.00;58812.66;6244919;22;45439;-62
2023/01/07 10:20:23;;;;;;;;;4.67;4.67;;;;;-147.14;100.00;58812.66;6235869;22;45505;-62
2023/01/07 10:23:18;;;;;;;;;8.33;5.00;;;;;-147.14;100.00;58812.66;6246384;22;45277;-62
2023/01/07 10:25:50;;;;;;;;;6.33;5.00;;;;;-147.14;100.00;58812.66;6216991;22;45257;-62
2023/01/07 10:28:21;;;;;;;;;10.00;6.67;;;;;-147.14;100.00;58812.66;6246131;22;45413;-62
2023/01/07 10:30:51;;;;;;;;;7.67;6.67;;;;;-147.14;100.00;58812.66;6219006;22;46142;-62
2023/01/07 10:33:25;;;;;;;;;5.33;5.00;;;;;-147.14;100.00;58812.66;6244957;22;45172;-61
2023/01/07 10:36:24;;;;;;;;;5.33;5.00;;;;;-147.14;100.00;58812.66;6245738;22;45422;-62
2023/01/07 10:39:01;;;;;;;;;6.00;6.00;;;;;-147.14;100.00;58812.66;6246291;22;45582;-61
2023/01/07 10:41:35;;;;;;;;;5.00;5.00;;;;;-147.14;100.00;58812.66;6244788;22;45999;-62
2023/01/07 10:44:24;;;;;;;;;6.00;6.00;;;;;-147.14;100.00;58812.66;6218653;22;45233;-64
2023/01/07 10:47:27;;;;;;;;;3.67;3.33;;;;;-147.14;100.00;58812.66;6246089;22;45580;-65
2023/01/07 10:50:04;;;;;;;;;7.00;6.00;;;;;-147.14;100.00;58812.66;6244958;22;45226;-65
2023/01/07 10:53:02;;;;;;;;;8.67;5.00;;;;;-147.14;100.00;58812.66;6246125;22;45280;-63
2023/01/07 10:55:40;;;;;;;;;3.67;2.67;;;;;-147.14;100.00;58812.66;6214878;22;45348;-64
2023/01/07 10:58:09;;;;;;;;;5.00;5.00;;;;;-147.14;100.00;58812.66;6245012;22;45602;-64
2023/01/07 11:00:34;;;;;;;;;5.00;5.00;;;;;-147.14;100.00;58812.66;6244153;22;45162;-64
2023/01/07 11:03:00;;;;;;;;;4.00;4.00;;;;;-147.14;100.00;58812.66;6243668;22;53924;-65
2023/01/07 11:05:34;;;;;;;;;5.00;4.67;;;;;-147.14;100.00;58812.66;6217499;22;63482;-66
2023/01/07 11:08:03;;;;;;;;;6.00;6.00;;;;;-147.14;100.00;58812.66;6217432;22;45584;-65
2023/01/07 11:10:32;;;;;;;;;5.67;4.00;;;;;-147.14;100.00;58812.66;6219219;22;45474;-63
2023/01/07 11:13:02;;;;;;;;;4.00;4.00;;;;;-147.14;100.00;58812.66;6217914;22;45312;-64
2023/01/07 11:15:31;;;;;;;;;5.00;5.00;;;;;-147.14;100.00;58812.66;6217703;22;45337;-63
2023/01/07 11:18:03;;;;;;;;;4.33;4.00;;;;;-147.14;100.00;58812.66;6208922;22;45440;-65
2023/01/07 11:20:44;;;;;;;;;4.00;4.00;;;;;-147.14;100.00;58812.66;6207492;22;45591;-64
2023/01/07 11:23:30;;;;;;;;;8.00;7.00;;;;;-147.14;100.00;58812.66;6243816;22;46849;-64
2023/01/07 11:26:07;;;;;;;;;5.00;5.00;;;;;-147.14;100.00;58812.66;6243622;22;45675;-65
2023/01/07 11:28:32;;;;;;;;;4.00;4.00;;;;;-147.14;100.00;58812.66;6244836;22;45455;-65
2023/01/07 11:30:59;;;;;;;;;4.67;4.00;;;;;-147.14;100.00;58812.66;6217330;22;45671;-64
2023/01/07 11:33:36;;;;;;;;;4.67;4.00;;;;;-147.14;100.00;58812.66;6243821;22;46150;-65
2023/01/07 11:36:01;;;;;;;;;6.00;4.00;;;;;-147.14;100.00;58812.66;6243815;22;45756;-65
2023/01/07 11:38:32;;;;;;;;;6.00;6.00;;;;;-147.14;100.00;58812.66;6244967;22;45224;-64
2023/01/07 11:40:59;;;;;;;;;4.00;4.00;;;;;-147.14;100.00;58812.66;6243886;22;45382;-65
2023/01/07 11:43:30;;;;;;;;;3.33;3.33;;;;;-147.14;100.00;58812.66;6244556;22;46438;-64
2023/01/07 11:45:58;;;;;;;;;2.00;2.00;;;;;-147.14;100.00;58812.66;6244893;22;45432;-64
2023/01/07 11:48:41;;;;;;;;;3.00;3.00;;;;;-147.14;100.00;58812.66;6217772;22;45712;-64
2023/01/07 11:51:11;;;;;;;;;7.00;5.33;;;;;-147.14;100.00;58812.66;6193017;22;45311;-64
2023/01/07 11:53:43;;;;;;;;;4.00;4.00;;;;;-147.14;100.00;58812.66;6194035;22;46371;-65
2023/01/07 11:56:20;;;;;;;;;6.00;6.00;;;;;-147.14;100.00;58812.66;6217652;22;45642;-64
2023/01/07 11:59:12;;;;;;;;;4.00;4.00;;;;;-147.14;100.00;58812.66;6218817;22;45316;-64
2023/01/07 12:01:49;;;;;;;;;4.67;4.67;;;;;-147.14;100.00;58812.66;6217967;22;45444;-64
2023/01/07 12:04:32;;;;;;;;;4.67;3.33;;;;;-147.14;100.00;58812.66;6192431;22;46750;-64
2023/01/07 12:07:14;;;;;;;;;5.33;4.00;;;;;-147.14;100.00;58812.66;6217399;22;45304;-65
2023/01/07 12:09:42;;;;;;;;;6.67;5.00;;;;;-147.14;100.00;58812.66;6218698;22;45206;-65
2023/01/07 12:12:33;;;;;;;;;6.33;5.00;;;;;-147.14;100.00;58812.66;6216668;22;45381;-65
2023/01/07 12:15:00;;;;;;;;;4.00;4.00;;;;;-147.14;100.00;58812.66;6221619;22;45272;-65
2023/01/07 12:17:28;;;;;;;;;4.33;4.33;;;;;-147.14;100.00;58812.66;6192996;22;45227;-65
2023/01/07 12:20:28;;;;;;;;;8.00;5.33;;;;;-147.14;100.00;58812.66;6216718;22;45332;-65
2023/01/07 12:23:16;;;;;;;;;7.00;5.00;;;;;-147.14;100.00;58812.66;6217066;22;45392;-65
2023/01/07 12:26:15;;;;;;;;;3.33;3.00;;;;;-147.14;100.00;58812.66;6246080;22;47107;-64
2023/01/07 12:28:44;;;;;;;;;5.00;4.67;;;;;-147.14;100.00;58812.66;6237960;22;45342;-65
2023/01/07 12:31:18;;;;;;;;;4.67;3.33;;;;;-147.14;100.00;58812.66;6243583;22;45584;-64
2023/01/07 12:34:08;;;;;;;;;6.33;5.00;;;;;-147.14;100.00;58812.66;6217072;22;45369;-65
2023/01/07 12:36:41;;;;;;;;;6.00;5.00;;;;;-147.14;100.00;58812.66;6243715;22;45664;-64
2023/01/07 12:39:16;;;;;;;;;3.67;3.67;;;;;-147.14;100.00;58812.66;6238220;22;45364;-64
2023/01/07 12:41:44;;;;;;;;;4.00;4.00;;;;;-147.14;100.00;58812.66;6214720;22;45319;-65
2023/01/07 12:44:18;;;;;;;;;6.33;5.00;;;;;-147.14;100.00;58812.66;6218508;22;45442;-65
2023/01/07 12:46:58;;;;;;;;;6.00;6.00;;;;;-147.14;100.00;58812.66;6243743;22;45701;-65
2023/01/07 12:49:28;;;;;;;;;6.00;4.00;;;;;-147.14;100.00;58812.66;6217619;22;45327;-64
2023/01/07 12:52:30;;;;;;;;;8.00;5.00;;;;;-147.14;100.00;58812.66;6217332;22;45347;-65
2023/01/07 12:55:05;;;;;;;;;5.67;5.67;;;;;-147.14;100.00;58812.66;6242782;22;45443;-64
2023/01/07 12:57:36;;;;;;;;;4.67;4.67;;;;;-147.14;100.00;58812.66;6241258;22;45918;-64
2023/01/07 13:00:07;;;;;;;;;5.00;5.00;;;;;-147.14;100.00;58812.66;6190907;22;45810;-65
2023/01/07 13:02:57;;;;;;;;;4.00;4.00;;;;;-147.14;100.00;58812.66;6242432;22;45682;-65
2023/01/07 13:05:25;;;;;;;;;3.67;3.67;;;;;-147.14;100.00;58812.66;6217770;22;45294;-65
2023/01/07 13:08:02;;;;;;;;;3.00;3.00;;;;;-147.14;100.00;58812.66;6244436;22;45360;-65
2023/01/07 13:11:00;;;;;;;;;10.67;5.67;;;;;-147.14;100.00;58812.66;6219208;22;45240;-64
2023/01/07 13:13:51;;;;;;;;;6.33;6.00;;;;;-147.14;100.00;58812.66;6207765;22;45593;-65
2023/01/07 13:16:17;;;;;;;;;5.33;5.33;;;;;-147.14;100.00;58812.66;6211493;22;63507;-64
2023/01/07 13:18:42;;;;;;;;;7.00;4.67;;;;;-147.14;100.00;58812.66;6244706;22;66279;-64
2023/01/07 13:21:09;;;;;;;;;5.33;5.00;;;;;-147.14;100.00;58812.66;6242990;22;45252;-64
2023/01/07 13:24:02;;;;;;;;;5.67;4.00;;;;;-147.14;100.00;58812.66;6218704;22;45447;-64
2023/01/07 13:27:01;;;;;;;;;7.00;5.33;;;;;-147.14;100.00;58812.66;6245417;22;45407;-65
2023/01/07 13:29:57;;;;;;;;;7.67;6.33;;;;;-147.14;100.00;58812.66;6217632;22;47166;-65
2023/01/07 13:32:34;;;;;;;;;5.00;3.67;;;;;-147.14;100.00;58812.66;6243492;22;45237;-65
2023/01/07 13:35:24;;;;;;;;;4.33;4.33;;;;;-147.14;100.00;58812.66;6244697;22;45378;-65
2023/01/07 13:38:36;;;;;;;;;4.00;3.00;;;;;-147.14;100.00;58812.66;6245448;22;45331;-64
2023/01/07 13:41:13;;;;;;;;;7.00;5.00;;;;;-147.14;100.00;58812.66;6180570;23;45452;-64
2023/01/07 13:43:46;;;;;;;;;7.67;6.00;;;;;-147.14;100.00;58812.66;6179622;23;45336;-64
2023/01/07 13:46:17;;;;;;;;;7.00;7.00;;;;;-147.14;100.00;58812.66;6195604;22;45384;-64
2023/01/07 13:48:48;;;;;;;;;5.00;5.00;;;;;-147.14;100.00;58812.66;6245054;22;45226;-64
2023/01/07 13:51:15;;;;;;;;;7.00;7.00;;;;;-147.14;100.00;58812.66;6217074;22;45427;-64
2023/01/07 13:53:44;;;;;;;;;5.67;5.67;;;;;-147.14;100.00;58812.66;6218228;22;45312;-65
2023/01/07 13:56:16;;;;;;;;;7.67;6.67;;;;;-147.14;100.00;58812.66;6244638;22;45360;-65
2023/01/07 13:58:59;;;;;;;;;8.00;6.00;;;;;-147.14;100.00;58812.66;6245129;22;45457;-65
2023/01/07 14:01:26;;;;;;;;;5.00;5.00;;;;;-147.14;100.00;58812.66;6240803;22;46133;-65
2023/01/07 14:03:57;;;;;;;;;4.67;4.67;;;;;-147.14;100.00;58812.66;6245299;22;45373;-65
2023/01/07 14:06:25;;;;;;;;;8.33;7.00;;;;;-147.14;100.00;58812.66;6237360;22;45559;-64
2023/01/07 14:08:54;;;;;;;;;10.00;6.00;;;;;-147.14;100.00;58812.66;6244487;22;45272;-64
2023/01/07 14:11:46;;;;;;;;;10.33;6.67;;;;;-147.14;100.00;58812.66;6216388;22;46149;-64
2023/01/07 14:14:24;;;;;;;;;9.00;7.00;;;;;-147.14;100.00;58812.66;6213161;22;45399;-65
2023/01/07 14:16:58;;;;;;;;;7.33;6.00;;;;;-147.14;100.00;58812.66;6244136;22;45313;-65
2023/01/07 14:19:40;;;;;;;;;6.00;5.00;;;;;-147.14;100.00;58812.66;6217659;22;45417;-64
2023/01/07 14:22:38;;;;;;;;;6.67;6.67;;;;;-147.14;100.00;58812.66;6243450;22;45384;-64
2023/01/07 14:25:04;;;;;;;;;7.00;5.33;;;;;-147.14;100.00;58812.66;6217681;22;45328;-64
2023/01/07 14:27:57;;;;;;;;;8.67;5.67;;;;;-147.14;100.00;58812.66;6245179;22;45472;-64
2023/01/07 14:30:31;;;;;;;;;7.33;7.00;;;;;-147.14;100.00;58812.66;6219358;22;45592;-64
2023/01/07 14:33:03;;;;;;;;;8.33;6.67;;;;;-147.14;100.00;58812.66;6245797;22;45602;-62
2023/01/07 14:35:29;;;;;;;;;7.00;5.67;;;;;-147.14;100.00;58812.66;6244849;22;55335;-63
2023/01/07 14:37:54;;;;;;;;;6.00;6.00;;;;;-147.14;100.00;58812.66;6245125;22;45426;-61
2023/01/07 14:40:25;;;;;;;;;6.00;6.00;;;;;-147.14;100.00;58812.66;6218086;22;62715;-62
2023/01/07 14:42:58;;;;;;;;;8.33;7.00;;;;;-147.14;100.00;58812.66;6246018;22;45276;-61
2023/01/07 14:45:36;;;;;;;;;9.33;7.00;;;;;-147.14;100.00;58812.66;6246216;22;45182;-62
2023/01/07 14:48:31;;;;;;;;;7.00;6.00;;;;;-147.14;100.00;58812.66;6246069;22;45256;-62
2023/01/07 14:51:03;;;;;;;;;7.67;7.00;;;;;-147.14;100.00;58812.66;6244984;22;45336;-62
2023/01/07 14:53:55;;;;;;;;;7.67;6.33;;;;;-147.14;100.00;58812.66;6217875;22;46240;-62
2023/01/07 14:56:30;;;;;;;;;10.00;7.00;;;;;-147.14;100.00;58812.66;6218236;22;45687;-61
2023/01/07 14:59:23;;;;;;;;;10.33;9.00;;;;;-147.14;100.00;58812.66;6244852;22;45232;-61
2023/01/07 15:02:06;;;;;;;;;7.00;7.00;;;;;-147.14;100.00;58812.66;6245198;22;45407;-61
2023/01/07 15:05:10;;;;;;;;;6.67;6.33;;;;;-147.14;100.00;58812.66;6244331;22;46027;-61
2023/01/07 15:07:40;;;;;;;;;7.00;7.00;;;;;-147.14;100.00;58812.66;6192299;22;45348;-61
2023/01/07 15:16:01;;;;;;;;;7.00;5.00;;;;;-147.14;100.00;58812.66;6241265;22;45198;-61
2023/01/07 15:18:28;;;;;;;;;5.00;4.67;;;;;-147.14;100.00;58812.66;6245993;22;45228;-61
2023/01/07 15:21:32;;;;;;;;;8.00;6.00;;;;;-147.14;100.00;58812.66;6217982;22;45272;-61
2023/01/07 15:24:19;;;;;;;;;13.33;7.33;;;;;-147.14;100.00;58812.66;6197939;22;45597;-61
2023/01/07 15:26:48;;;;;;;;;6.00;6.00;;;;;-147.14;100.00;58812.66;6245853;22;45207;-61
2023/01/07 15:29:32;;;;;;;;;6.33;6.33;;;;;-147.14;100.00;58812.66;6218718;22;45305;-61
2023/01/07 15:32:43;;;;;;;;;5.67;5.00;;;;;-147.14;100.00;58812.66;6246209;22;45445;-61
2023/01/07 15:35:18;;;;;;;;;4.33;4.33;;;;;-147.14;100.00;58812.66;6193901;22;45796;-60
2023/01/07 15:37:46;;;;;;;;;7.00;6.67;;;;;-147.14;100.00;58812.66;6245830;22;46513;-62
2023/01/07 15:40:18;;;;;;;;;9.67;6.33;;;;;-147.14;100.00;58812.66;6218274;22;45251;-61
2023/01/07 15:42:45;;;;;;;;;6.00;6.00;;;;;-147.14;100.00;58812.66;6246870;22;45197;-63
2023/01/07 15:45:16;;;;;;;;;8.00;6.00;;;;;-147.14;100.00;58812.66;6220422;22;45341;-62
2023/01/07 15:47:42;;;;;;;;;7.67;7.67;;;;;-147.14;100.00;58812.66;6218151;22;46188;-62
2023/01/07 15:50:27;;;;;;;;;11.00;8.00;;;;;-147.14;100.00;58812.66;6243441;22;45508;-61
2023/01/07 15:52:58;;;;;;;;;9.33;7.00;;;;;-147.14;100.00;58812.66;6219031;22;45412;-61
2023/01/07 15:55:27;;;;;;;;;5.00;5.00;;;;;-147.14;100.00;58812.66;6246283;22;45340;-61
2023/01/07 15:57:59;;;;;;;;;6.67;6.67;;;;;-147.14;100.00;58812.66;6244418;22;45407;-64
2023/01/07 16:00:24;;;;;;;;;8.33;4.67;;;;;-147.14;100.00;58812.66;6245654;22;45233;-65
2023/01/07 16:02:50;;;;;;;;;5.00;5.00;;;;;-147.14;100.00;58812.66;6219879;22;45281;-66
2023/01/07 16:05:17;;;;;;;;;7.33;4.67;;;;;-147.14;100.00;58812.66;6218441;22;45330;-65
2023/01/07 16:07:52;;;;;;;;;9.00;9.00;;;;;-147.14;100.00;58812.66;6245753;22;46101;-65
2023/01/07 16:10:28;;;;;;;;;7.67;4.67;;;;;-147.14;100.00;58812.66;6244405;22;45388;-65
2023/01/07 16:12:56;;;;;;;;;3.00;3.00;;;;;-147.14;100.00;58812.66;6246218;22;45297;-65
2023/01/07 16:15:30;;;;;;;;;7.33;6.33;;;;;-147.14;100.00;58812.66;6247201;22;45302;-66
2023/01/07 16:17:58;;;;;;;;;8.00;6.00;;;;;-147.14;100.00;58812.66;6245827;22;45356;-65
2023/01/07 16:20:29;;;;;;;;;4.33;4.33;;;;;-147.14;100.00;58812.66;6237614;22;45387;-65
2023/01/07 16:23:16;;;;;;;;;3.00;3.00;;;;;-147.14;100.00;58812.66;6244106;22;45390;-66
2023/01/07 16:25:48;;;;;;;;;9.67;7.33;;;;;-147.14;100.00;58812.66;6218214;22;45289;-66
2023/01/07 16:28:20;;;;;;;;;7.33;6.33;;;;;-147.14;100.00;58812.66;6218453;22;45329;-66
2023/01/07 16:30:46;;;;;;;;;7.33;7.00;;;;;-147.14;100.00;58812.66;6245313;22;45631;-66
2023/01/07 16:33:15;;;;;;;;;5.67;5.67;;;;;-147.14;100.00;58812.66;6218745;22;45264;-66
2023/01/07 16:35:40;;;;;;;;;8.00;8.00;;;;;-147.14;100.00;58812.66;6218090;22;45558;-66
2023/01/07 16:38:06;;;;;;;;;7.00;6.00;;;;;-147.14;100.00;58812.66;6244013;22;66008;-66
2023/01/07 16:40:36;;;;;;;;;8.00;8.00;;;;;-147.14;100.00;58812.66;6218006;22;65061;-66
2023/01/07 16:43:02;;;;;;;;;5.00;5.00;;;;;-147.14;100.00;58812.66;6245401;22;45166;-66
2023/01/07 16:45:40;;;;;;;;;14.00;9.00;;;;;-147.14;100.00;58812.66;6245539;22;45395;-66
2023/01/07 16:48:23;;;;;;;;;6.67;6.67;;;;;-147.14;100.00;58812.66;6245383;22;46421;-66
2023/01/07 16:50:48;;;;;;;;;9.67;7.67;;;;;-147.14;100.00;58812.66;6245091;22;45343;-66
2023/01/07 16:53:23;;;;;;;;;7.67;7.00;;;;;-147.14;100.00;58812.66;6217563;22;45600;-61
2023/01/07 16:55:53;;;;;;;;;8.33;8.33;;;;;-147.14;100.00;58812.66;6244875;22;45358;-60
2023/01/07 16:58:49;;;;;;;;;6.00;6.00;;;;;-147.14;100.00;58812.66;6245075;22;46318;-61
2023/01/07 17:01:18;;;;;;;;;7.00;7.00;;;;;-147.14;100.00;58812.66;6231170;22;45376;-64
2023/01/07 17:03:51;;;;;;;;;7.00;7.00;;;;;-147.14;100.00;58812.66;6245607;22;45325;-65
2023/01/07 17:06:22;;;;;;;;;6.00;4.00;;;;;-147.14;100.00;58812.66;6218793;22;45619;-68
2023/01/07 17:08:49;;;;;;;;;8.00;7.00;;;;;-147.14;100.00;58812.66;6217817;22;45535;-64
2023/01/07 17:11:44;;;;;;;;;7.00;5.00;;;;;-147.14;100.00;58812.66;6242794;22;45224;-67
2023/01/07 17:14:37;;;;;;;;;5.67;5.67;;;;;-147.14;100.00;58812.66;6204028;22;45278;-65
2023/01/07 17:17:02;;;;;;;;;8.33;6.00;;;;;-147.14;100.00;58812.66;6244855;22;45279;-65
2023/01/07 17:19:42;;;;;;;;;6.33;5.00;;;;;-147.14;100.00;58812.66;6244528;22;45317;-65
2023/01/07 17:22:28;;;;;;;;;6.00;6.00;;;;;-147.14;100.00;58812.66;6245140;22;45244;-65
2023/01/07 17:25:18;;;;;;;;;7.67;7.00;;;;;-147.14;100.00;58812.66;6244331;22;45312;-64
2023/01/07 17:27:48;;;;;;;;;8.33;7.33;;;;;-147.14;100.00;58812.66;6244335;22;45716;-64
2023/01/07 17:30:16;;;;;;;;;7.33;7.33;;;;;-147.14;100.00;58812.66;6217663;22;46192;-61
2023/01/07 17:32:42;;;;;;;;;7.00;7.00;;;;;-147.14;100.00;58812.66;6245396;22;45424;-65
2023/01/07 17:35:22;;;;;;;;;6.67;6.67;;;;;-147.14;100.00;58812.66;6244800;22;45238;-67
2023/01/07 17:37:48;;;;;;;;;8.33;7.67;;;;;-147.14;100.00;58812.66;6245908;22;45245;-67
2023/01/07 17:40:14;;;;;;;;;9.00;7.33;;;;;-147.14;100.00;58812.66;6244086;22;46386;-66
2023/01/07 17:45:25;;;;;;;;;8.67;7.00;;;;;-147.14;100.00;58812.66;6217410;22;45293;-66
2023/01/07 17:47:51;;;;;;;;;8.00;8.00;;;;;-147.14;100.00;58812.66;6245615;22;45270;-65
2023/01/07 17:50:18;;;;;;;;;5.33;5.00;;;;;-147.14;100.00;58812.66;6244785;22;46530;-64
2023/01/07 17:52:49;;;;;;;;;6.67;6.67;;;;;-147.14;100.00;58812.66;6217967;22;45660;-62
2023/01/07 17:55:18;;;;;;;;;10.67;6.00;;;;;-147.14;100.00;58812.66;6216909;22;45328;-63
2023/01/07 17:57:43;;;;;;;;;9.00;9.00;;;;;-147.14;100.00;58812.66;6217773;22;45281;-65
2023/01/07 18:00:23;;;;;;;;;6.67;4.67;;;;;-147.14;100.00;58812.66;6242835;22;63919;-66
2023/01/07 18:02:49;;;;;;;;;7.67;6.33;;;;;-147.14;100.00;58812.66;6217176;22;45610;-65
2023/01/07 18:05:23;;;;;;;;;10.00;10.00;;;;;-147.14;100.00;58812.66;6243957;22;45232;-60
2023/01/07 18:07:49;;;;;;;;;4.33;4.33;;;;;-147.14;100.00;58812.66;6245176;22;45509;-69
2023/01/07 18:10:17;;;;;;;;;8.33;8.00;;;;;-147.14;100.00;58812.66;6244321;22;46143;-69
2023/01/07 18:12:43;;;;;;;;;6.33;6.00;;;;;-147.14;100.00;58812.66;6244198;22;45421;-70
2023/01/07 18:15:25;;;;;;;;;7.00;7.00;;;;;-147.14;100.00;58812.66;6244687;22;45391;-70
2023/01/07 18:17:51;;;;;;;;;8.00;8.00;;;;;-147.14;100.00;58812.66;6246619;22;45264;-70
2023/01/07 18:20:17;;;;;;;;;7.00;7.00;;;;;-147.14;100.00;58812.66;6244959;22;45353;-69
2023/01/07 18:22:43;;;;;;;;;9.33;8.00;;;;;-147.14;100.00;58812.66;6216095;22;45372;-70
2023/01/07 18:25:20;;;;;;;;;7.00;7.00;;;;;-147.14;100.00;58812.66;6244700;22;45422;-69
2023/01/07 18:27:47;;;;;;;;;7.00;7.00;;;;;-147.14;100.00;58812.66;6245038;22;45273;-70
2023/01/07 18:30:17;;;;;;;;;8.00;7.33;;;;;-147.14;100.00;58812.66;6242357;22;46295;-70
2023/01/07 18:32:43;;;;;;;;;7.00;6.00;;;;;-147.14;100.00;58812.66;6244376;22;45408;-69
2023/01/07 18:35:10;;;;;;;;;10.33;9.00;;;;;-147.14;100.00;58812.66;6243410;22;45163;-69
2023/01/07 18:37:36;;;;;;;;;9.33;7.67;;;;;-147.14;100.00;58812.66;6216688;22;45665;-70
2023/01/07 18:40:03;;;;;;;;;14.33;10.67;;;;;-147.14;100.00;58812.66;6244729;22;45180;-70
2023/01/07 18:42:29;;;;;;;;;9.67;8.00;;;;;-147.14;100.00;58812.66;6244331;22;45585;-69
2023/01/07 18:44:55;;;;;;;;;9.67;8.00;;;;;-147.14;100.00;58812.66;6242824;22;45435;-71